METAR Data
IDs: Format: Raw Decoded Include TAF

Data at: 1716 UTC 21 Sep 2018

KTRL 211653Z AUTO 16011KT 3SM RA SCT016 BKN046 OVC080 25/22 A2999 RMK AO2 RAB21 SLP150 P0016 T02500217
KTRL 211647Z AUTO 18016G20KT 2 1/2SM +RA SCT018 BKN034 OVC080 25/22 A3000 RMK AO2 VIS 1 1/2V5 RAB21 P0015
KTRL 211632Z AUTO 19009KT 3SM -RA BKN018 BKN028 BKN043 27/24 A3000 RMK AO2 RAB21 P0009 T02720244
KTRL 211625Z AUTO 17009KT 1 3/4SM +RA SCT018 BKN026 BKN043 28/24 A3000 RMK AO2 RAB21 P0009 T02780239
KTRL 211553Z AUTO 19010KT 10SM BKN016 BKN024 28/23 A3000 RMK AO2 SLP150 T02830233
KTRL 211453Z AUTO 15008KT 10SM FEW013 BKN023 BKN028 27/23 A2998 RMK AO2 SLP147 T02720233 51009
KTRL 211443Z AUTO 15008KT 10SM SCT013 BKN019 BKN026 27/23 A2998 RMK AO2 T02720233
KTRL 211429Z AUTO 14008KT 10SM BKN014 OVC020 27/23 A2998 RMK AO2 T02670233
KTRL 211415Z AUTO 14008KT 10SM SCT014 BKN021 BKN026 27/23 A2998 RMK AO2 T02670233
KTRL 211353Z AUTO 14008KT 10SM FEW024 BKN080 BKN110 26/23 A2998 RMK AO2 SLP144 T02610233
KTRL 211323Z AUTO 14007KT 10SM SCT016 OVC080 26/23 A2998 RMK AO2 T02560233
KTRL 211253Z AUTO 13006KT 10SM FEW008 BKN015 BKN020 26/23 A2997 RMK AO2 SLP142 T02560233
KTRL 211153Z AUTO 13006KT 10SM OVC012 26/23 A2996 RMK AO2 SLP137 T02560233 10261 20244 53003
KTRL 211053Z AUTO 13005KT 10SM OVC013 26/23 A2995 RMK AO2 SLP134 T02560233
KTRL 211028Z AUTO 13004KT 10SM BKN013 OVC080 26/23 A2995 RMK AO2 T02560233
KTRL 210953Z AUTO 15006KT 10SM OVC090 26/23 A2995 RMK AO2 SLP132 T02560228
KTRL 210931Z AUTO 15005KT 10SM FEW020 OVC095 26/23 A2995 RMK AO2 T02560228
KTRL 210853Z AUTO 17004KT 10SM BKN020 OVC095 26/22 A2995 RMK AO2 SLP134 T02560222 55002
KTRL 210809Z AUTO 18005KT 10SM BKN021 BKN027 OVC085 25/22 A2995 RMK AO2 T02500222
KTRL 210753Z AUTO 19004KT 10SM FEW021 OVC090 25/22 A2995 RMK AO2 SLP133 T02500222
KTRL 210653Z AUTO 17003KT 10SM OVC085 25/22 A2994 RMK AO2 SLP132 T02500222
KTRL 210553Z AUTO 18004KT 10SM BKN095 24/22 A2996 RMK AO2 SLP136 60000 T02440222 10300 20239 403330239 58002
KTRL 210453Z AUTO 19005KT 10SM CLR 24/22 A2997 RMK AO2 RAB28E39 SLP140 P0000 T02440217
KTRL 210353Z AUTO 20006KT 10SM CLR 24/21 A2997 RMK AO2 SLP142 T02390206
KTRL 210253Z AUTO 00000KT 10SM SCT090 BKN110 24/20 A2996 RMK AO2 RAB04E18 SLP140 P0000 60000 T02390200 51021
KTRL 210153Z AUTO 00000KT 10SM BKN100 24/19 A2996 RMK AO2 RAE10 SLP138 P0000 T02390194
KTRL 210053Z AUTO 14009KT 10SM -RA FEW026 SCT050 BKN110 25/19 A2994 RMK AO2 LTG DSNT NE AND NW RAB25 SLP133 P0000 T02500194
KTRL 202353Z AUTO 18005KT 10SM CLR 30/21 A2990 RMK AO2 LTG DSNT ALQDS SLP118 60000 T03000211 10333 20300 55004
KTRL 202253Z AUTO 16012KT 10SM CLR 32/20 A2989 RMK AO2 LTG DSNT SW AND W SLP114 T03170200
KTRL 202153Z AUTO 16010KT 10SM CLR 33/19 A2990 RMK AO2 SLP115 T03280194
KTRL 202053Z AUTO 17011KT 10SM CLR 32/20 A2991 RMK AO2 LTG DSNT SW RAB1956E05 SLP121 P0000 60000 T03170200 56021
KTRL 201953Z AUTO 16009KT 10SM SCT045 BKN055 32/21 A2993 RMK AO2 RAB14E23 SLP126 P0000 T03220206
KTRL 201853Z AUTO 16008KT 10SM FEW041 32/21 A2995 RMK AO2 SLP134 T03220206
KTRL 201753Z AUTO 19010KT 10SM FEW035 32/21 A2998 RMK AO2 SLP143 T03170211 10322 20239 58006
KTRL 201653Z AUTO 17010KT 10SM SCT030 31/22 A3000 RMK AO2 SLP152 T03060217
KTRL 201553Z AUTO 18009KT 10SM CLR 29/22 A3000 RMK AO2 SLP151 T02940217
KTRL 201453Z AUTO 16010KT 10SM FEW014 28/23 A2999 RMK AO2 SLP149 T02830228 53013
KTRL 201353Z AUTO 15006KT 10SM CLR 26/23 A2998 RMK AO2 SLP145 T02560228
KTRL 201253Z AUTO 13005KT 10SM CLR 25/22 A2996 RMK AO2 SLP139 T02500222
KTRL 201153Z AUTO 15004KT 10SM CLR 24/22 A2996 RMK AO2 SLP136 T02390217 10272 20239 53009
KTRL 201053Z AUTO 16005KT 10SM CLR 24/22 A2994 RMK AO2 SLP131 T02390217
KTRL 200953Z AUTO 19004KT 10SM CLR 24/22 A2993 RMK AO2 SLP127 T02440217
KTRL 200853Z AUTO 17004KT 10SM CLR 25/22 A2993 RMK AO2 SLP127 T02500217 56010
KTRL 200753Z AUTO 18006KT 10SM CLR 26/21 A2993 RMK AO2 SLP128 T02560211
KTRL 200653Z AUTO 17007KT 10SM CLR 26/21 A2994 RMK AO2 SLP131 T02610211
KTRL 200553Z AUTO 15008KT 10SM CLR 27/21 A2996 RMK AO2 SLP137 60000 T02720211 10328 20272 403560233 51013